createdAt,value
2018-11-22T00:00:15.948Z,0.05
2018-11-22T00:01:16.433Z,0.05
2018-11-22T00:01:27.365Z,0.05
2018-11-22T00:02:28.880Z,0.05
2018-11-22T00:03:29.375Z,0.05
2018-11-22T00:04:29.826Z,0.05
2018-11-22T00:05:30.239Z,0.05
2018-11-22T00:06:30.538Z,0.05
2018-11-22T00:07:30.884Z,0.05
2018-11-22T00:08:31.231Z,0.05
2018-11-22T00:09:31.993Z,0.05
2018-11-22T00:10:32.363Z,0.05
2018-11-22T00:11:32.819Z,0.05
2018-11-22T00:12:33.543Z,0.05
2018-11-22T00:13:34.142Z,0.05
2018-11-22T00:14:34.468Z,0.05
2018-11-22T00:15:35.245Z,0.05
2018-11-22T00:16:35.945Z,0.00
2018-11-22T00:17:36.598Z,0.05
2018-11-22T00:18:37.084Z,0.05
2018-11-22T00:19:38.013Z,0.05
2018-11-22T00:20:38.350Z,0.05
2018-11-22T00:21:38.874Z,0.05
2018-11-22T00:22:39.254Z,0.05
2018-11-22T00:23:39.688Z,0.05
2018-11-22T00:24:40.157Z,0.05
2018-11-22T00:25:40.584Z,0.05
2018-11-22T00:26:40.893Z,0.05
2018-11-22T00:27:41.424Z,0.05
2018-11-22T00:28:41.967Z,0.05
2018-11-22T00:29:42.337Z,0.05
2018-11-22T00:30:42.888Z,0.05
2018-11-22T00:31:43.296Z,0.05
2018-11-22T00:32:43.777Z,0.00
2018-11-22T00:33:44.170Z,0.00
2018-11-22T00:34:44.563Z,0.00
2018-11-22T00:35:44.942Z,0.00
2018-11-22T00:36:45.741Z,0.00
2018-11-22T00:37:46.120Z,0.00
2018-11-22T00:38:46.647Z,0.00
2018-11-22T00:39:46.102Z,0.00
2018-11-22T00:40:47.622Z,0.00
2018-11-22T00:41:48.231Z,0.00
2018-11-22T00:42:48.639Z,0.00
2018-11-22T00:43:49.018Z,0.00
2018-11-22T00:44:49.325Z,0.00
2018-11-22T00:45:49.651Z,0.00
2018-11-22T00:46:50.043Z,0.00
2018-11-22T00:46:59.024Z,0.00
2018-11-22T00:48:00.308Z,0.00
2018-11-22T00:49:00.694Z,0.00
2018-11-22T00:50:01.079Z,0.00
2018-11-22T00:51:01.726Z,0.00
2018-11-22T00:52:02.113Z,0.00
2018-11-22T00:53:02.842Z,0.00
2018-11-22T00:54:03.452Z,0.00
2018-11-22T00:55:03.996Z,0.00
2018-11-22T00:56:04.297Z,0.00
2018-11-22T00:57:04.645Z,0.00
2018-11-22T00:58:04.942Z,0.00
2018-11-22T00:59:05.299Z,0.00
2018-11-22T01:00:05.669Z,0.00
2018-11-22T01:01:06.079Z,0.00
2018-11-22T01:02:06.491Z,0.00
2018-11-22T01:03:06.874Z,0.00
2018-11-22T01:04:07.259Z,0.00
2018-11-22T01:05:07.699Z,0.00
2018-11-22T01:06:08.259Z,0.00
2018-11-22T01:07:08.677Z,0.00
2018-11-22T01:08:09.001Z,0.05
2018-11-22T01:09:09.431Z,0.05
2018-11-22T01:10:09.766Z,0.05
2018-11-22T01:11:10.701Z,0.05
2018-11-22T01:12:11.215Z,0.05
2018-11-22T01:13:11.838Z,0.05
2018-11-22T01:14:12.525Z,0.05
2018-11-22T01:15:12.865Z,0.05
2018-11-22T01:16:13.220Z,0.05
2018-11-22T01:17:13.707Z,0.05
2018-11-22T01:18:13.720Z,0.05
2018-11-22T01:19:14.028Z,0.05
2018-11-22T01:20:14.525Z,0.05
2018-11-22T01:21:15.179Z,0.05
2018-11-22T01:22:15.652Z,0.05
2018-11-22T01:23:16.340Z,0.05
2018-11-22T01:24:17.209Z,0.05
2018-11-22T01:25:17.766Z,0.05
2018-11-22T01:26:18.185Z,0.00
2018-11-22T01:27:18.625Z,0.00
2018-11-22T01:28:18.990Z,0.00
2018-11-22T01:29:19.403Z,0.00
2018-11-22T01:30:19.772Z,0.00
2018-11-22T01:31:20.294Z,0.00
2018-11-22T01:31:29.244Z,0.00
2018-11-22T01:32:29.556Z,0.00
2018-11-22T01:33:29.871Z,0.00
2018-11-22T01:34:29.513Z,0.00
2018-11-22T01:35:30.877Z,0.00
2018-11-22T01:36:31.255Z,0.00
2018-11-22T01:37:31.828Z,0.00
2018-11-22T01:38:32.193Z,0.00
2018-11-22T01:39:32.737Z,0.00
2018-11-22T01:40:33.238Z,0.00
2018-11-22T01:41:33.798Z,0.00
2018-11-22T01:42:34.721Z,0.00
2018-11-22T01:43:35.256Z,0.00
2018-11-22T01:44:35.934Z,0.00
2018-11-22T01:45:36.317Z,0.00
2018-11-22T01:46:37.069Z,0.00
2018-11-22T01:47:37.750Z,0.00
2018-11-22T01:48:38.167Z,0.00
2018-11-22T01:49:38.565Z,0.00
2018-11-22T01:50:38.904Z,0.00
2018-11-22T01:51:39.384Z,0.00
2018-11-22T01:52:39.895Z,0.00
2018-11-22T01:53:40.252Z,0.00
2018-11-22T01:54:40.631Z,0.00
2018-11-22T01:55:41.155Z,0.00
2018-11-22T01:56:41.763Z,0.00
2018-11-22T01:57:42.063Z,0.00
2018-11-22T01:58:42.606Z,0.00
2018-11-22T01:59:43.065Z,0.00
2018-11-22T02:00:43.371Z,0.00
2018-11-22T02:01:44.176Z,0.00
2018-11-22T02:02:44.554Z,0.00
2018-11-22T02:03:45.097Z,0.00
2018-11-22T02:04:45.999Z,0.00
2018-11-22T02:05:46.344Z,0.00
2018-11-22T02:06:46.939Z,0.00
2018-11-22T02:07:47.513Z,0.00
2018-11-22T02:08:48.076Z,0.00
2018-11-22T02:09:48.413Z,0.00
2018-11-22T02:10:48.967Z,0.00
2018-11-22T02:11:49.533Z,0.00
2018-11-22T02:12:50.006Z,0.00
2018-11-22T02:13:50.400Z,0.00
2018-11-22T02:14:50.728Z,0.00
2018-11-22T02:15:51.064Z,0.00
2018-11-22T02:16:01.007Z,0.00
2018-11-22T02:17:02.398Z,0.00
2018-11-22T02:18:02.825Z,0.00
2018-11-22T02:19:03.321Z,0.00
2018-11-22T02:20:03.673Z,0.00
2018-11-22T02:21:04.004Z,0.00
2018-11-22T02:22:04.442Z,0.00
2018-11-22T02:23:04.972Z,0.00
2018-11-22T02:24:05.476Z,0.00
2018-11-22T02:25:05.859Z,0.00
2018-11-22T02:26:05.856Z,0.00
2018-11-22T02:27:06.373Z,0.00
2018-11-22T02:28:06.938Z,0.00
2018-11-22T02:29:07.432Z,0.00
2018-11-22T02:30:08.076Z,0.00
2018-11-22T02:31:08.377Z,0.00
2018-11-22T02:32:08.780Z,0.00
2018-11-22T02:33:09.203Z,0.00
2018-11-22T02:34:09.550Z,0.00
2018-11-22T02:35:10.180Z,0.00
2018-11-22T02:36:10.551Z,0.00
2018-11-22T02:37:11.202Z,0.00
2018-11-22T02:38:11.585Z,0.00
2018-11-22T02:39:11.919Z,0.00
2018-11-22T02:40:12.791Z,0.00
2018-11-22T02:41:13.180Z,0.00
2018-11-22T02:42:13.799Z,0.00
2018-11-22T02:43:14.191Z,0.00
2018-11-22T02:44:14.956Z,0.00
2018-11-22T02:45:15.420Z,0.00
2018-11-22T02:46:16.238Z,0.00
2018-11-22T02:47:16.550Z,0.00
2018-11-22T02:48:16.942Z,0.00
2018-11-22T02:49:16.266Z,0.00
2018-11-22T02:50:17.810Z,0.00
2018-11-22T02:51:18.255Z,0.00
2018-11-22T02:52:18.643Z,0.00
2018-11-22T02:53:19.585Z,0.00
2018-11-22T02:54:19.889Z,0.00
2018-11-22T02:55:20.561Z,0.00
2018-11-22T02:56:21.011Z,0.00
2018-11-22T02:57:21.436Z,0.00
2018-11-22T02:58:21.719Z,0.00
2018-11-22T02:59:22.137Z,0.00
2018-11-22T03:00:22.364Z,0.00
2018-11-22T03:01:22.682Z,0.00
2018-11-22T03:01:30.747Z,0.00
2018-11-22T03:02:32.462Z,0.00
2018-11-22T03:03:32.824Z,0.00
2018-11-22T03:04:33.216Z,0.00
2018-11-22T03:05:33.602Z,0.00
2018-11-22T03:06:33.995Z,0.00
2018-11-22T03:07:34.449Z,0.00
2018-11-22T03:08:34.875Z,0.00
2018-11-22T03:09:35.200Z,0.00
2018-11-22T03:10:35.821Z,0.00
2018-11-22T03:11:36.153Z,0.00
2018-11-22T03:12:36.419Z,0.00
2018-11-22T03:13:36.943Z,0.00
2018-11-22T03:14:37.236Z,0.00
2018-11-22T03:15:37.545Z,0.00
2018-11-22T03:16:37.926Z,0.00
2018-11-22T03:17:38.701Z,0.00
2018-11-22T03:18:39.615Z,0.00
2018-11-22T03:19:40.376Z,0.00
2018-11-22T03:20:40.955Z,0.00
2018-11-22T03:21:41.422Z,0.00
2018-11-22T03:22:41.773Z,0.00
2018-11-22T03:23:42.361Z,0.00
2018-11-22T03:24:42.773Z,0.00
2018-11-22T03:25:43.163Z,0.00
2018-11-22T03:26:43.769Z,0.00
2018-11-22T03:27:44.110Z,0.00
2018-11-22T03:28:44.616Z,0.00
2018-11-22T03:29:45.475Z,0.00
2018-11-22T03:30:46.006Z,0.00
2018-11-22T03:31:46.288Z,0.00
2018-11-22T03:32:47.103Z,0.00
2018-11-22T03:33:47.890Z,0.00
2018-11-22T03:34:48.561Z,0.00
2018-11-22T03:35:48.881Z,0.00
2018-11-22T03:36:49.177Z,0.00
2018-11-22T03:37:49.848Z,0.00
2018-11-22T03:38:50.218Z,0.00
2018-11-22T03:39:50.474Z,0.00
2018-11-22T03:40:51.221Z,0.00
2018-11-22T03:41:51.582Z,0.00
2018-11-22T03:42:51.978Z,0.00
2018-11-22T03:43:52.724Z,0.00
2018-11-22T03:44:53.408Z,0.00
2018-11-22T03:45:01.692Z,0.00
2018-11-22T03:46:03.020Z,0.00
2018-11-22T03:47:03.357Z,0.00
2018-11-22T03:48:03.848Z,0.00
2018-11-22T03:49:04.513Z,0.00
2018-11-22T03:50:04.865Z,0.00
2018-11-22T03:51:05.213Z,0.00
2018-11-22T03:52:05.647Z,0.00
2018-11-22T03:53:06.568Z,0.00
2018-11-22T03:54:07.361Z,0.00
2018-11-22T03:55:07.770Z,0.00
2018-11-22T03:56:08.142Z,0.00
2018-11-22T03:57:08.473Z,0.00
2018-11-22T03:58:09.103Z,0.00
2018-11-22T03:59:09.547Z,0.00
2018-11-22T04:00:10.048Z,0.00
2018-11-22T04:01:10.335Z,0.00
2018-11-22T04:02:11.187Z,0.00
2018-11-22T04:03:11.889Z,0.00
2018-11-22T04:04:12.444Z,0.00
2018-11-22T04:05:12.914Z,0.00
2018-11-22T04:06:13.258Z,0.00
2018-11-22T04:07:13.788Z,0.00
2018-11-22T04:08:14.428Z,0.00
2018-11-22T04:09:15.094Z,0.00
2018-11-22T04:10:15.381Z,0.00
2018-11-22T04:11:15.754Z,0.00
2018-11-22T04:12:16.208Z,0.00
2018-11-22T04:13:16.526Z,0.00
2018-11-22T04:14:17.333Z,0.00
2018-11-22T04:15:17.757Z,0.00
2018-11-22T04:16:18.066Z,0.00
2018-11-22T04:17:18.378Z,0.00
2018-11-22T04:18:18.808Z,0.00
2018-11-22T04:19:19.271Z,0.00
2018-11-22T04:20:19.671Z,0.00
2018-11-22T04:21:20.004Z,0.00
2018-11-22T04:22:20.960Z,0.00
2018-11-22T04:23:21.471Z,0.00
2018-11-22T04:24:21.827Z,0.00
2018-11-22T04:25:22.610Z,0.00
2018-11-22T04:26:24.114Z,0.00
2018-11-22T04:27:22.480Z,0.00
2018-11-22T04:28:23.792Z,0.00
2018-11-22T04:29:24.090Z,0.00
2018-11-22T04:30:24.463Z,0.00
2018-11-22T04:30:34.443Z,0.00
2018-11-22T04:31:34.988Z,0.00
2018-11-22T04:32:35.439Z,0.00
2018-11-22T04:33:35.839Z,0.00
2018-11-22T04:34:36.320Z,0.00
2018-11-22T04:35:36.444Z,0.00
2018-11-22T04:36:37.091Z,0.00
2018-11-22T04:37:37.411Z,0.00
2018-11-22T04:38:38.125Z,0.00
2018-11-22T04:39:38.405Z,0.00
2018-11-22T04:40:38.800Z,0.00
2018-11-22T04:41:39.229Z,0.00
2018-11-22T04:42:39.543Z,0.00
2018-11-22T04:43:38.965Z,0.00
2018-11-22T04:44:40.322Z,0.00
2018-11-22T04:45:40.607Z,0.00
2018-11-22T04:46:41.098Z,0.00
2018-11-22T04:47:41.418Z,0.00
2018-11-22T04:48:41.851Z,0.00
2018-11-22T04:49:42.374Z,0.00
2018-11-22T04:50:42.951Z,0.00
2018-11-22T04:51:43.479Z,0.00
2018-11-22T04:52:43.921Z,0.00
2018-11-22T04:53:44.450Z,0.00
2018-11-22T04:54:44.941Z,0.00
2018-11-22T04:55:45.725Z,0.00
2018-11-22T04:56:46.450Z,0.00
2018-11-22T04:57:46.913Z,0.00
2018-11-22T04:58:47.338Z,0.00
2018-11-22T04:59:47.670Z,0.00
2018-11-22T05:00:48.140Z,0.00
2018-11-22T05:01:48.606Z,0.00
2018-11-22T05:02:49.116Z,0.00
2018-11-22T05:03:49.700Z,0.00
2018-11-22T05:04:50.094Z,0.00
2018-11-22T05:05:50.487Z,0.00
2018-11-22T05:06:50.941Z,0.00
2018-11-22T05:07:51.252Z,0.00
2018-11-22T05:08:51.669Z,0.00
2018-11-22T05:09:50.898Z,0.00
2018-11-22T05:10:52.226Z,0.00
2018-11-22T05:11:52.999Z,0.00
2018-11-22T05:12:53.451Z,0.00
2018-11-22T05:13:54.063Z,0.00
2018-11-22T05:14:54.385Z,0.00
2018-11-22T05:15:54.671Z,0.00
2018-11-22T05:16:02.751Z,0.00
2018-11-22T05:17:04.217Z,0.00
2018-11-22T05:18:04.925Z,0.00
2018-11-22T05:19:05.517Z,0.00
2018-11-22T05:20:06.001Z,0.00
2018-11-22T05:21:06.397Z,0.00
2018-11-22T05:22:06.785Z,0.00
2018-11-22T05:23:07.117Z,0.00
2018-11-22T05:24:07.744Z,0.00
2018-11-22T05:25:08.241Z,0.00
2018-11-22T05:26:09.160Z,0.00
2018-11-22T05:27:09.557Z,0.00
2018-11-22T05:28:10.016Z,0.00
2018-11-22T05:29:12.496Z,0.00
2018-11-22T05:30:09.971Z,0.00
2018-11-22T05:31:11.452Z,0.00
2018-11-22T05:32:11.878Z,0.00
2018-11-22T05:33:12.342Z,0.00
2018-11-22T05:34:12.425Z,0.00
2018-11-22T05:35:12.987Z,0.00
2018-11-22T05:36:13.382Z,0.00
2018-11-22T05:37:13.875Z,0.00
2018-11-22T05:38:14.268Z,0.00
2018-11-22T05:39:14.851Z,0.00
2018-11-22T05:40:14.300Z,0.00
2018-11-22T05:41:15.774Z,0.00
2018-11-22T05:42:16.089Z,0.00
2018-11-22T05:43:16.639Z,0.00
2018-11-22T05:44:16.970Z,0.00
2018-11-22T05:45:17.433Z,0.00
2018-11-22T05:46:17.894Z,0.00
2018-11-22T05:47:18.417Z,0.00
2018-11-22T05:48:18.777Z,0.00
2018-11-22T05:49:19.135Z,0.00
2018-11-22T05:50:19.709Z,0.00
2018-11-22T05:51:20.479Z,0.00
2018-11-22T05:52:20.920Z,0.00
2018-11-22T05:53:21.268Z,0.00
2018-11-22T05:54:21.759Z,0.05
2018-11-22T05:55:22.242Z,0.05
2018-11-22T05:56:22.710Z,0.05
2018-11-22T05:57:23.072Z,0.05
2018-11-22T05:58:23.502Z,0.05
2018-11-22T05:59:23.827Z,0.05
2018-11-22T06:00:24.147Z,0.05
2018-11-22T06:01:24.658Z,0.05
2018-11-22T06:02:25.130Z,0.09
2018-11-22T06:02:33.611Z,0.09
2018-11-22T06:03:34.991Z,0.09
2018-11-22T06:04:35.720Z,0.14
2018-11-22T06:05:36.039Z,0.14
2018-11-22T06:06:36.498Z,0.18
2018-11-22T06:07:37.239Z,0.18
2018-11-22T06:08:37.601Z,0.18
2018-11-22T06:09:38.036Z,0.27
2018-11-22T06:10:38.433Z,0.31
2018-11-22T06:11:38.885Z,0.36
2018-11-22T06:12:39.339Z,0.41
2018-11-22T06:13:39.707Z,0.50
2018-11-22T06:14:40.135Z,0.58
2018-11-22T06:15:40.532Z,0.72
2018-11-22T06:16:41.090Z,0.86
2018-11-22T06:17:41.260Z,1.03
2018-11-22T06:18:41.676Z,1.22
2018-11-22T06:19:42.073Z,1.39
2018-11-22T06:20:42.448Z,1.66
2018-11-22T06:21:42.850Z,1.89
2018-11-22T06:22:43.498Z,2.20
2018-11-22T06:23:44.437Z,2.65
2018-11-22T06:24:43.335Z,3.19
2018-11-22T06:25:44.687Z,3.78
2018-11-22T06:26:45.169Z,4.45
2018-11-22T06:27:45.849Z,5.13
2018-11-22T06:28:46.205Z,6.07
2018-11-22T06:29:46.712Z,7.34
2018-11-22T06:30:47.136Z,8.69
2018-11-22T06:31:47.621Z,10.22
2018-11-22T06:32:48.052Z,11.88
2018-11-22T06:33:48.556Z,13.86
2018-11-22T06:34:48.994Z,15.75
2018-11-22T06:35:49.460Z,17.82
2018-11-22T06:36:50.065Z,20.25
2018-11-22T06:37:50.634Z,23.58
2018-11-22T06:38:51.096Z,26.64
2018-11-22T06:39:51.480Z,30.42
2018-11-22T06:40:51.975Z,34.74
2018-11-22T06:41:52.001Z,39.42
2018-11-22T06:42:52.648Z,43.56
2018-11-22T06:43:52.628Z,48.96
2018-11-22T06:44:53.010Z,55.44
2018-11-22T06:45:53.330Z,61.56
2018-11-22T06:46:53.957Z,70.20
2018-11-22T06:47:54.331Z,81.00
2018-11-22T06:48:05.437Z,83.88
2018-11-22T06:49:06.996Z,95.76
2018-11-22T06:50:07.360Z,104.40
2018-11-22T06:51:07.879Z,113.76
2018-11-22T06:52:08.351Z,123.84
2018-11-22T06:53:08.777Z,133.20
2018-11-22T06:54:09.113Z,141.12
2018-11-22T06:55:12.225Z,157.68
2018-11-22T06:56:09.946Z,170.64
2018-11-22T06:57:10.419Z,180.00
2018-11-22T06:58:10.945Z,188.64
2018-11-22T06:59:11.345Z,200.16
2018-11-22T07:00:11.713Z,217.44
2018-11-22T07:01:12.143Z,228.96
2018-11-22T07:02:12.572Z,243.36
2018-11-22T07:03:13.054Z,264.96
2018-11-22T07:04:13.497Z,289.44
2018-11-22T07:05:13.987Z,300.96
2018-11-22T07:06:14.370Z,318.24
2018-11-22T07:07:14.697Z,349.92
2018-11-22T07:08:14.705Z,383.04
2018-11-22T07:09:15.459Z,394.56
2018-11-22T07:10:16.036Z,400.32
2018-11-22T07:11:16.860Z,400.32
2018-11-22T07:12:17.633Z,408.96
2018-11-22T07:13:18.041Z,429.12
2018-11-22T07:14:18.932Z,437.76
2018-11-22T07:15:19.398Z,452.16
2018-11-22T07:16:19.890Z,443.52
2018-11-22T07:17:20.233Z,457.92
2018-11-22T07:18:20.562Z,492.48
2018-11-22T07:19:21.253Z,518.40
2018-11-22T07:20:21.651Z,538.56
2018-11-22T07:21:22.574Z,567.36
2018-11-22T07:22:23.036Z,576.00
2018-11-22T07:23:23.581Z,584.64
2018-11-22T07:24:23.949Z,613.44
2018-11-22T07:25:24.144Z,668.16
2018-11-22T07:26:23.553Z,64.80
2018-11-22T07:27:24.939Z,717.12
2018-11-22T07:28:25.288Z,720.00
2018-11-22T07:29:26.250Z,737.28
2018-11-22T07:30:26.587Z,783.36
2018-11-22T07:31:26.994Z,806.40
2018-11-22T07:32:27.425Z,812.16
2018-11-22T07:33:28.045Z,840.96
2018-11-22T07:34:28.517Z,869.76
2018-11-22T07:34:36.937Z,875.52
2018-11-22T07:35:38.321Z,927.36
2018-11-22T07:36:38.838Z,1071.36
2018-11-22T07:37:39.219Z,1152.00
2018-11-22T07:38:39.734Z,1209.60
2018-11-22T07:39:39.930Z,1278.72
2018-11-22T07:40:40.685Z,1376.64
2018-11-22T07:41:41.227Z,1451.52
2018-11-22T07:42:41.595Z,1520.64
2018-11-22T07:43:42.333Z,1624.32
2018-11-22T07:44:42.712Z,1728.00
2018-11-22T07:45:43.079Z,1854.72
2018-11-22T07:46:43.725Z,2004.48
2018-11-22T07:47:44.399Z,2073.60
2018-11-22T07:48:44.868Z,2246.40
2018-11-22T07:49:45.658Z,2465.28
2018-11-22T07:50:46.100Z,2741.76
2018-11-22T07:51:46.476Z,2833.92
2018-11-22T07:52:46.968Z,3064.32
2018-11-22T07:53:47.386Z,3248.64
2018-11-22T07:54:47.906Z,3317.76
2018-11-22T07:55:48.544Z,3363.84
2018-11-22T07:56:48.967Z,3409.92
2018-11-22T07:57:49.350Z,3525.12
2018-11-22T07:58:49.687Z,3709.44
2018-11-22T07:59:50.635Z,3824.64
2018-11-22T08:00:51.248Z,3801.60
2018-11-22T08:01:51.827Z,3571.20
2018-11-22T08:02:52.173Z,3502.08
2018-11-22T08:03:52.517Z,3456.00
2018-11-22T08:04:52.988Z,3386.88
2018-11-22T08:05:53.749Z,3340.80
2018-11-22T08:06:53.320Z,3363.84
2018-11-22T08:07:54.674Z,3479.04
2018-11-22T08:08:55.144Z,3456.00
2018-11-22T08:09:55.772Z,3502.08
2018-11-22T08:10:56.255Z,3363.84
2018-11-22T08:11:56.908Z,3179.52
2018-11-22T08:12:57.595Z,3156.48
2018-11-22T08:13:56.884Z,3156.48
2018-11-22T08:14:58.339Z,3064.32
2018-11-22T08:15:58.785Z,3087.36
2018-11-22T08:16:59.268Z,2949.12
2018-11-22T08:17:59.699Z,3133.44
2018-11-22T08:19:00.251Z,3340.80
2018-11-22T08:20:00.622Z,3340.80
2018-11-22T08:20:10.608Z,3363.84
2018-11-22T08:21:11.985Z,3179.52
2018-11-22T08:22:12.421Z,3340.80
2018-11-22T08:23:12.796Z,3225.60
2018-11-22T08:24:13.642Z,3087.36
2018-11-22T08:25:14.167Z,3202.56
2018-11-22T08:26:14.532Z,3386.88
2018-11-22T08:27:14.896Z,3916.80
2018-11-22T08:28:15.379Z,4446.72
2018-11-22T08:29:15.722Z,5045.76
2018-11-22T08:30:16.041Z,5184.00
2018-11-22T08:31:16.735Z,3985.92
2018-11-22T08:32:17.164Z,3778.56
2018-11-22T08:33:17.633Z,4008.96
2018-11-22T08:34:18.365Z,3847.68
2018-11-22T08:35:18.927Z,3870.72
2018-11-22T08:36:19.447Z,3755.52
2018-11-22T08:37:19.953Z,3663.36
2018-11-22T08:38:20.346Z,4147.20
2018-11-22T08:39:20.749Z,4308.48
2018-11-22T08:40:21.113Z,4792.32
2018-11-22T08:41:21.501Z,5068.80
2018-11-22T08:42:21.921Z,4976.64
2018-11-22T08:43:22.360Z,5207.04
2018-11-22T08:44:22.778Z,4423.68
2018-11-22T08:45:23.520Z,4446.72
2018-11-22T08:46:24.073Z,4746.24
2018-11-22T08:47:24.616Z,5207.04
2018-11-22T08:48:24.950Z,5184.00
2018-11-22T08:49:25.113Z,4884.48
2018-11-22T08:50:25.997Z,4976.64
2018-11-22T08:51:26.444Z,5207.04
2018-11-22T08:52:26.824Z,5299.20
2018-11-22T08:53:27.230Z,4930.56
2018-11-22T08:54:27.516Z,4654.08
2018-11-22T08:55:27.832Z,5022.72
2018-11-22T08:56:28.303Z,5345.28
2018-11-22T08:57:28.650Z,5276.16
2018-11-22T08:58:29.004Z,4907.52
2018-11-22T08:59:29.341Z,4815.36
2018-11-22T09:00:29.780Z,4700.16
2018-11-22T09:01:29.173Z,4723.20
2018-11-22T09:02:30.597Z,4930.56
2018-11-22T09:03:31.122Z,4930.56
2018-11-22T09:04:53.534Z,5230.08
2018-11-22T09:05:53.856Z,5230.08
2018-11-22T09:06:54.335Z,5391.36
2018-11-22T09:07:54.708Z,5345.28
2018-11-22T09:08:55.066Z,5207.04
2018-11-22T09:09:55.428Z,4677.12
2018-11-22T09:10:56.121Z,4008.96
2018-11-22T09:11:56.446Z,3824.64
2018-11-22T09:12:56.837Z,3778.56
2018-11-22T09:13:57.190Z,3893.76
2018-11-22T09:14:57.556Z,4216.32
2018-11-22T09:15:58.447Z,4423.68
2018-11-22T09:16:58.816Z,4400.64
2018-11-22T09:17:59.353Z,4032.00
2018-11-22T09:18:59.747Z,4008.96
2018-11-22T09:19:59.763Z,3824.64
2018-11-22T09:21:00.187Z,3732.48
2018-11-22T09:22:00.851Z,3916.80
2018-11-22T09:23:01.567Z,3985.92
2018-11-22T09:24:01.956Z,3916.80
2018-11-22T09:25:02.475Z,4170.24
2018-11-22T09:26:02.707Z,4262.40
2018-11-22T09:27:03.156Z,4262.40
2018-11-22T09:28:03.582Z,4331.52
2018-11-22T09:29:04.127Z,4400.64
2018-11-22T09:30:04.893Z,4400.64
2018-11-22T09:31:05.394Z,4515.84
2018-11-22T09:32:05.803Z,4769.28
2018-11-22T09:33:05.175Z,4976.64
2018-11-22T09:34:06.601Z,5437.44
2018-11-22T09:35:07.267Z,5644.80
2018-11-22T09:36:06.581Z,5783.04
2018-11-22T09:37:08.136Z,6128.64
2018-11-22T09:38:08.507Z,5875.20
2018-11-22T09:39:09.058Z,5829.12
2018-11-22T09:40:09.645Z,6819.84
2018-11-22T09:41:10.145Z,7188.48
2018-11-22T09:42:10.036Z,6958.08
2018-11-22T09:43:10.783Z,6865.92
2018-11-22T09:44:12.353Z,6681.60
2018-11-22T09:45:12.772Z,6451.20
2018-11-22T09:46:13.123Z,7050.24
2018-11-22T09:47:13.641Z,7234.56
2018-11-22T09:48:14.297Z,7787.52
2018-11-22T09:49:14.684Z,8202.24
2018-11-22T09:50:15.102Z,8478.72
2018-11-22T09:51:15.541Z,9216.00
2018-11-22T09:52:16.200Z,9400.32
2018-11-22T09:52:24.628Z,9446.40
2018-11-22T09:53:25.960Z,10229.76
2018-11-22T09:54:26.778Z,10920.96
2018-11-22T09:55:27.145Z,10506.24
2018-11-22T09:56:27.760Z,9676.80
2018-11-22T09:57:28.297Z,9031.68
2018-11-22T09:58:29.120Z,9216.00
2018-11-22T09:59:29.763Z,9400.32
2018-11-22T10:00:30.518Z,9077.76
2018-11-22T10:01:30.888Z,8294.40
2018-11-22T10:02:31.259Z,7787.52
2018-11-22T10:03:31.777Z,7603.20
2018-11-22T10:04:32.206Z,7833.60
2018-11-22T10:05:31.860Z,8248.32
2018-11-22T10:06:33.236Z,8755.20
2018-11-22T10:07:33.731Z,8248.32
2018-11-22T10:08:34.128Z,7971.84
2018-11-22T10:09:33.594Z,7833.60
2018-11-22T10:10:34.982Z,7787.52
2018-11-22T10:11:35.634Z,7787.52
2018-11-22T10:12:36.292Z,7741.44
2018-11-22T10:13:36.092Z,7603.20
2018-11-22T10:14:37.984Z,6865.92
2018-11-22T10:15:38.806Z,6773.76
2018-11-22T10:16:39.258Z,6912.00
2018-11-22T10:17:39.758Z,7050.24
2018-11-22T10:18:40.206Z,6912.00
2018-11-22T10:19:39.503Z,6497.28
2018-11-22T10:20:41.034Z,6082.56
2018-11-22T10:21:41.898Z,6128.64
2018-11-22T10:22:42.237Z,6312.96
2018-11-22T10:23:42.828Z,6497.28
2018-11-22T10:24:42.357Z,6266.88
2018-11-22T10:25:43.938Z,6220.80
2018-11-22T10:26:44.335Z,6589.44
2018-11-22T10:27:44.676Z,6958.08
2018-11-22T10:28:45.081Z,7372.80
2018-11-22T10:29:45.515Z,7418.88
2018-11-22T10:30:45.919Z,8017.92
2018-11-22T10:31:46.374Z,8248.32
2018-11-22T10:32:45.317Z,8110.08
2018-11-22T10:33:46.951Z,7971.84
2018-11-22T10:34:47.619Z,7649.28
2018-11-22T10:35:48.048Z,7787.52
2018-11-22T10:36:48.733Z,7925.76
2018-11-22T10:37:49.316Z,7879.68
2018-11-22T10:38:48.660Z,7326.72
2018-11-22T10:39:50.230Z,7004.16
2018-11-22T10:40:50.706Z,7188.48
2018-11-22T10:41:51.215Z,7234.56
2018-11-22T10:42:51.750Z,7603.20
2018-11-22T10:43:00.218Z,7649.28
2018-11-22T10:44:01.485Z,8064.00
2018-11-22T10:45:02.078Z,8064.00
2018-11-22T10:46:02.714Z,8110.08
2018-11-22T10:47:03.667Z,7326.72
2018-11-22T10:48:04.286Z,7096.32
2018-11-22T10:49:05.002Z,7511.04
2018-11-22T10:50:05.599Z,7833.60
2018-11-22T10:51:06.182Z,7879.68
2018-11-22T10:52:06.531Z,7695.36
2018-11-22T10:53:06.974Z,7511.04
2018-11-22T10:54:07.395Z,7603.20
2018-11-22T10:55:07.880Z,7695.36
2018-11-22T10:56:08.286Z,7280.64
2018-11-22T10:57:08.642Z,7280.64
2018-11-22T10:58:09.022Z,7511.04
2018-11-22T10:59:09.560Z,7326.72
2018-11-22T11:00:10.384Z,7142.40
2018-11-22T11:01:10.983Z,7004.16
2018-11-22T11:02:11.318Z,6727.68
2018-11-22T11:03:11.398Z,6543.36
2018-11-22T11:04:11.899Z,6681.60
2018-11-22T11:05:12.253Z,6773.76
2018-11-22T11:06:12.370Z,6543.36
2018-11-22T11:07:12.734Z,6405.12
2018-11-22T11:08:13.094Z,6451.20
2018-11-22T11:09:13.472Z,6405.12
2018-11-22T11:10:14.293Z,6174.72
2018-11-22T11:11:14.673Z,6405.12
2018-11-22T11:12:15.146Z,6359.04
2018-11-22T11:13:16.564Z,6635.52
2018-11-22T11:14:16.537Z,6773.76
2018-11-22T11:15:17.049Z,6451.20
2018-11-22T11:16:17.465Z,6174.72
2018-11-22T11:17:17.888Z,5783.04
2018-11-22T11:18:18.259Z,5322.24
2018-11-22T11:19:18.795Z,5045.76
2018-11-22T11:20:19.214Z,5022.72
2018-11-22T11:21:19.646Z,5068.80
2018-11-22T11:22:20.119Z,5322.24
2018-11-22T11:23:20.647Z,5644.80
2018-11-22T11:24:20.792Z,6082.56
2018-11-22T11:25:21.048Z,6865.92
2018-11-22T11:26:21.583Z,6727.68
2018-11-22T11:27:21.027Z,6865.92
2018-11-22T11:28:22.615Z,6912.00
2018-11-22T11:28:31.471Z,6865.92
2018-11-22T11:29:32.356Z,6681.60
2018-11-22T11:30:32.845Z,6819.84
2018-11-22T11:31:33.219Z,7004.16
2018-11-22T11:32:33.575Z,7372.80
2018-11-22T11:33:34.093Z,8616.96
2018-11-22T11:34:34.489Z,9768.96
2018-11-22T11:35:34.959Z,9676.80
2018-11-22T11:36:35.941Z,9400.32
2018-11-22T11:37:36.505Z,9492.48
2018-11-22T11:38:36.802Z,9308.16
2018-11-22T11:39:37.242Z,8985.60
2018-11-22T11:40:37.758Z,8801.28
2018-11-22T11:41:38.151Z,8939.52
2018-11-22T11:42:38.517Z,9123.84
2018-11-22T11:43:39.093Z,9216.00
2018-11-22T11:44:39.668Z,10137.60
2018-11-22T11:45:40.113Z,9815.04
2018-11-22T11:46:40.522Z,9815.04
2018-11-22T11:47:40.888Z,9446.40
2018-11-22T11:48:41.344Z,9354.24
2018-11-22T11:49:41.701Z,9446.40
2018-11-22T11:50:42.113Z,9676.80
2018-11-22T11:51:42.601Z,8663.04
2018-11-22T11:52:43.024Z,8017.92
2018-11-22T11:53:43.633Z,8156.16
2018-11-22T11:54:44.185Z,9446.40
2018-11-22T11:55:45.167Z,10183.68
2018-11-22T11:56:45.724Z,11289.60
2018-11-22T11:57:46.147Z,11566.08
2018-11-22T11:58:46.649Z,12533.76
2018-11-22T11:59:47.123Z,12257.28
2018-11-22T12:00:47.712Z,11704.32
2018-11-22T12:01:48.175Z,11197.44
2018-11-22T12:02:48.541Z,11427.84
2018-11-22T12:03:48.940Z,11888.64
2018-11-22T12:04:49.778Z,12441.60
2018-11-22T12:05:49.063Z,12533.76
2018-11-22T12:06:50.664Z,11243.52
2018-11-22T12:07:51.175Z,9953.28
2018-11-22T12:08:51.658Z,10506.24
2018-11-22T12:09:56.227Z,9584.64
2018-11-22T12:10:51.584Z,8478.72
2018-11-22T12:11:53.012Z,7603.20
2018-11-22T12:12:53.516Z,7372.80
2018-11-22T12:13:53.922Z,7372.80
2018-11-22T12:14:02.315Z,7418.88
2018-11-22T12:15:03.132Z,7603.20
2018-11-22T12:16:04.051Z,7971.84
2018-11-22T12:17:05.618Z,8156.16
2018-11-22T12:18:05.150Z,8017.92
2018-11-22T12:19:05.545Z,7833.60
2018-11-22T12:20:06.142Z,7925.76
2018-11-22T12:21:06.811Z,8017.92
2018-11-22T12:22:07.337Z,8017.92
2018-11-22T12:23:07.951Z,8064.00
2018-11-22T12:24:08.639Z,8340.48
2018-11-22T12:25:09.074Z,8570.88
2018-11-22T12:26:09.462Z,8616.96
2018-11-22T12:27:08.887Z,8570.88
2018-11-22T12:28:09.983Z,8432.64
2018-11-22T12:29:10.452Z,8294.40
2018-11-22T12:30:10.982Z,8340.48
2018-11-22T12:31:11.517Z,8524.80
2018-11-22T12:32:11.863Z,8616.96
2018-11-22T12:33:12.190Z,8524.80
2018-11-22T12:34:12.565Z,8340.48
2018-11-22T12:35:13.089Z,8017.92
2018-11-22T12:36:13.541Z,7695.36